sensor_id;sensor_type;location;lat;lon;timestamp;pressure;altitude;pressure_sealevel;temperature;humidity
69528;BME280;57136;51.986;4.468;2022-12-15T00:01:16;100775.22;;;-1.54;100.00
69528;BME280;57136;51.986;4.468;2022-12-15T00:04:00;100768.19;;;-1.58;100.00
69528;BME280;57136;51.986;4.468;2022-12-15T00:06:44;100768.00;;;-1.78;100.00
69528;BME280;57136;51.986;4.468;2022-12-15T00:09:28;100771.59;;;-1.91;100.00
69528;BME280;57136;51.986;4.468;2022-12-15T00:12:12;100767.41;;;-2.05;100.00
69528;BME280;57136;51.986;4.468;2022-12-15T00:14:56;100776.06;;;-2.18;100.00
69528;BME280;57136;51.986;4.468;2022-12-15T00:17:40;100775.28;;;-2.32;100.00
69528;BME280;57136;51.986;4.468;2022-12-15T00:20:24;100780.59;;;-2.44;100.00
69528;BME280;57136;51.986;4.468;2022-12-15T00:23:10;100786.25;;;-2.50;100.00
69528;BME280;57136;51.986;4.468;2022-12-15T00:25:54;100785.09;;;-2.55;100.00
69528;BME280;57136;51.986;4.468;2022-12-15T00:28:38;100793.38;;;-2.59;100.00
69528;BME280;57136;51.986;4.468;2022-12-15T00:31:22;100789.53;;;-2.67;100.00
69528;BME280;57136;51.986;4.468;2022-12-15T00:34:06;100791.09;;;-2.69;100.00
69528;BME280;57136;51.986;4.468;2022-12-15T00:36:50;100794.25;;;-2.74;100.00
69528;BME280;57136;51.986;4.468;2022-12-15T00:39:34;100787.84;;;-2.82;100.00
69528;BME280;57136;51.986;4.468;2022-12-15T00:41:59;100785.88;;;-2.86;100.00
69528;BME280;57136;51.986;4.468;2022-12-15T00:44:25;100793.03;;;-2.95;100.00
69528;BME280;57136;51.986;4.468;2022-12-15T00:46:50;100797.94;;;-2.98;100.00
69528;BME280;57136;51.986;4.468;2022-12-15T00:49:18;100796.19;;;-2.99;100.00
69528;BME280;57136;51.986;4.468;2022-12-15T00:52:02;100799.59;;;-2.99;100.00
69528;BME280;57136;51.986;4.468;2022-12-15T00:54:46;100794.25;;;-3.04;100.00
69528;BME280;57136;51.986;4.468;2022-12-15T00:57:30;100797.41;;;-3.08;100.00
69528;BME280;57136;51.986;4.468;2022-12-15T01:00:14;100799.88;;;-3.09;100.00
69528;BME280;57136;51.986;4.468;2022-12-15T01:02:58;100798.19;;;-3.09;100.00
69528;BME280;57136;51.986;4.468;2022-12-15T01:05:42;100806.53;;;-3.11;100.00
69528;BME280;57136;51.986;4.468;2022-12-15T01:08:26;100808.75;;;-3.03;100.00
69528;BME280;57136;51.986;4.468;2022-12-15T01:11:11;100815.06;;;-3.11;100.00
69528;BME280;57136;51.986;4.468;2022-12-15T01:13:55;100814.09;;;-3.13;100.00
69528;BME280;57136;51.986;4.468;2022-12-15T01:16:39;100819.38;;;-3.10;100.00
69528;BME280;57136;51.986;4.468;2022-12-15T01:19:23;100819.75;;;-3.04;100.00
69528;BME280;57136;51.986;4.468;2022-12-15T01:22:07;100831.16;;;-2.97;100.00
69528;BME280;57136;51.986;4.468;2022-12-15T01:24:32;100832.59;;;-2.87;100.00
69528;BME280;57136;51.986;4.468;2022-12-15T01:26:58;100830.06;;;-2.57;100.00
69528;BME280;57136;51.986;4.468;2022-12-15T01:29:24;100826.81;;;-2.54;100.00
69528;BME280;57136;51.986;4.468;2022-12-15T01:31:49;100824.88;;;-2.44;100.00
69528;BME280;57136;51.986;4.468;2022-12-15T01:34:15;100834.72;;;-2.50;100.00
69528;BME280;57136;51.986;4.468;2022-12-15T01:36:41;100835.78;;;-2.61;100.00
69528;BME280;57136;51.986;4.468;2022-12-15T01:39:06;100836.50;;;-2.64;100.00
69528;BME280;57136;51.986;4.468;2022-12-15T01:41:32;100839.75;;;-2.66;100.00
69528;BME280;57136;51.986;4.468;2022-12-15T01:44:18;100843.94;;;-2.82;100.00
69528;BME280;57136;51.986;4.468;2022-12-15T01:46:45;100845.63;;;-2.82;100.00
69528;BME280;57136;51.986;4.468;2022-12-15T01:49:15;100840.78;;;-2.78;100.00
69528;BME280;57136;51.986;4.468;2022-12-15T01:51:49;100840.69;;;-2.64;100.00
69528;BME280;57136;51.986;4.468;2022-12-15T01:54:20;100841.84;;;-2.59;100.00
69528;BME280;57136;51.986;4.468;2022-12-15T01:56:49;100838.63;;;-2.57;100.00
69528;BME280;57136;51.986;4.468;2022-12-15T01:59:20;100843.25;;;-2.64;100.00
69528;BME280;57136;51.986;4.468;2022-12-15T02:01:46;100845.81;;;-2.79;100.00
69528;BME280;57136;51.986;4.468;2022-12-15T02:04:12;100855.66;;;-2.86;100.00
69528;BME280;57136;51.986;4.468;2022-12-15T02:06:38;100849.81;;;-2.98;100.00
69528;BME280;57136;51.986;4.468;2022-12-15T02:09:04;100853.47;;;-3.08;100.00
69528;BME280;57136;51.986;4.468;2022-12-15T02:11:48;100856.97;;;-3.21;100.00
69528;BME280;57136;51.986;4.468;2022-12-15T02:14:40;100858.69;;;-3.35;100.00
69528;BME280;57136;51.986;4.468;2022-12-15T02:17:13;100859.88;;;-3.43;100.00
69528;BME280;57136;51.986;4.468;2022-12-15T02:31:22;100875.91;;;-3.31;100.00
69528;BME280;57136;51.986;4.468;2022-12-15T02:36:46;100864.47;;;-3.09;100.00
69528;BME280;57136;51.986;4.468;2022-12-15T02:39:12;100868.59;;;-3.11;100.00
69528;BME280;57136;51.986;4.468;2022-12-15T02:41:42;100866.91;;;-3.25;100.00
69528;BME280;57136;51.986;4.468;2022-12-15T02:44:17;100861.03;;;-3.38;100.00
69528;BME280;57136;51.986;4.468;2022-12-15T02:52:44;100862.78;;;-3.37;100.00
69528;BME280;57136;51.986;4.468;2022-12-15T02:55:24;100865.53;;;-3.34;100.00
69528;BME280;57136;51.986;4.468;2022-12-15T03:01:05;100879.34;;;-3.02;100.00
69528;BME280;57136;51.986;4.468;2022-12-15T03:03:33;100867.31;;;-2.89;100.00
69528;BME280;57136;51.986;4.468;2022-12-15T03:06:01;100877.09;;;-2.82;100.00
69528;BME280;57136;51.986;4.468;2022-12-15T03:08:29;100876.72;;;-2.88;100.00
69528;BME280;57136;51.986;4.468;2022-12-15T03:10:55;100875.88;;;-2.89;100.00
69528;BME280;57136;51.986;4.468;2022-12-15T03:13:23;100873.06;;;-2.93;100.00
69528;BME280;57136;51.986;4.468;2022-12-15T03:15:49;100874.44;;;-2.98;100.00
69528;BME280;57136;51.986;4.468;2022-12-15T03:18:15;100876.63;;;-3.05;100.00
69528;BME280;57136;51.986;4.468;2022-12-15T03:20:40;100871.84;;;-3.13;100.00
69528;BME280;57136;51.986;4.468;2022-12-15T03:23:05;100870.31;;;-3.25;100.00
69528;BME280;57136;51.986;4.468;2022-12-15T03:25:31;100873.22;;;-3.19;100.00
69528;BME280;57136;51.986;4.468;2022-12-15T03:27:56;100877.81;;;-3.13;100.00
69528;BME280;57136;51.986;4.468;2022-12-15T03:30:22;100877.22;;;-3.09;100.00
69528;BME280;57136;51.986;4.468;2022-12-15T03:32:47;100882.44;;;-3.07;100.00
69528;BME280;57136;51.986;4.468;2022-12-15T03:35:12;100889.78;;;-3.12;100.00
69528;BME280;57136;51.986;4.468;2022-12-15T03:37:38;100887.75;;;-3.18;100.00
69528;BME280;57136;51.986;4.468;2022-12-15T03:40:05;100893.50;;;-3.20;100.00
69528;BME280;57136;51.986;4.468;2022-12-15T03:42:30;100890.88;;;-3.22;100.00
69528;BME280;57136;51.986;4.468;2022-12-15T03:45:19;100891.94;;;-3.18;100.00
69528;BME280;57136;51.986;4.468;2022-12-15T03:47:45;100885.28;;;-3.16;100.00
69528;BME280;57136;51.986;4.468;2022-12-15T03:50:14;100882.84;;;-3.14;100.00
69528;BME280;57136;51.986;4.468;2022-12-15T03:52:40;100880.28;;;-3.14;100.00
69528;BME280;57136;51.986;4.468;2022-12-15T03:55:06;100883.81;;;-3.12;100.00
69528;BME280;57136;51.986;4.468;2022-12-15T03:57:32;100891.81;;;-3.06;99.84
69528;BME280;57136;51.986;4.468;2022-12-15T03:59:57;100888.94;;;-2.97;99.48
69528;BME280;57136;51.986;4.468;2022-12-15T04:02:22;100881.31;;;-2.97;100.00
69528;BME280;57136;51.986;4.468;2022-12-15T04:04:48;100877.97;;;-2.96;100.00
69528;BME280;57136;51.986;4.468;2022-12-15T04:07:13;100881.91;;;-3.02;100.00
69528;BME280;57136;51.986;4.468;2022-12-15T04:09:39;100891.31;;;-3.01;100.00
69528;BME280;57136;51.986;4.468;2022-12-15T04:12:05;100887.78;;;-3.03;100.00
69528;BME280;57136;51.986;4.468;2022-12-15T04:14:30;100880.66;;;-3.08;100.00
69528;BME280;57136;51.986;4.468;2022-12-15T04:16:56;100877.81;;;-3.13;100.00
69528;BME280;57136;51.986;4.468;2022-12-15T04:19:21;100876.56;;;-3.20;100.00
69528;BME280;57136;51.986;4.468;2022-12-15T04:22:05;100876.13;;;-3.27;100.00
69528;BME280;57136;51.986;4.468;2022-12-15T04:24:31;100884.44;;;-3.30;100.00
69528;BME280;57136;51.986;4.468;2022-12-15T04:27:16;100882.41;;;-3.36;100.00
69528;BME280;57136;51.986;4.468;2022-12-15T04:30:00;100883.19;;;-3.37;100.00
69528;BME280;57136;51.986;4.468;2022-12-15T04:32:44;100879.06;;;-3.35;100.00
69528;BME280;57136;51.986;4.468;2022-12-15T04:35:29;100883.63;;;-3.16;100.00
69528;BME280;57136;51.986;4.468;2022-12-15T04:38:14;100884.53;;;-3.00;100.00
69528;BME280;57136;51.986;4.468;2022-12-15T04:40:59;100885.88;;;-2.92;100.00
69528;BME280;57136;51.986;4.468;2022-12-15T04:43:42;100885.34;;;-2.86;100.00
69528;BME280;57136;51.986;4.468;2022-12-15T04:46:26;100887.91;;;-2.86;100.00
69528;BME280;57136;51.986;4.468;2022-12-15T04:49:10;100886.66;;;-2.93;100.00
69528;BME280;57136;51.986;4.468;2022-12-15T04:51:54;100889.56;;;-3.02;100.00
69528;BME280;57136;51.986;4.468;2022-12-15T04:54:38;100893.22;;;-3.11;100.00
69528;BME280;57136;51.986;4.468;2022-12-15T04:57:22;100890.81;;;-3.23;100.00
69528;BME280;57136;51.986;4.468;2022-12-15T05:00:07;100886.91;;;-3.32;100.00
69528;BME280;57136;51.986;4.468;2022-12-15T05:02:51;100887.50;;;-3.36;100.00
69528;BME280;57136;51.986;4.468;2022-12-15T05:05:35;100899.25;;;-3.38;100.00
69528;BME280;57136;51.986;4.468;2022-12-15T05:08:19;100897.03;;;-3.47;100.00
69528;BME280;57136;51.986;4.468;2022-12-15T05:11:03;100899.88;;;-3.55;100.00
69528;BME280;57136;51.986;4.468;2022-12-15T05:13:47;100901.53;;;-3.42;100.00
69528;BME280;57136;51.986;4.468;2022-12-15T05:16:31;100903.56;;;-3.23;100.00
69528;BME280;57136;51.986;4.468;2022-12-15T05:19:14;100895.38;;;-3.18;100.00
69528;BME280;57136;51.986;4.468;2022-12-15T05:21:59;100901.28;;;-3.19;100.00
69528;BME280;57136;51.986;4.468;2022-12-15T05:24:42;100903.44;;;-3.25;100.00
69528;BME280;57136;51.986;4.468;2022-12-15T05:27:26;100900.09;;;-3.24;100.00
69528;BME280;57136;51.986;4.468;2022-12-15T05:30:10;100910.41;;;-2.94;99.22
69528;BME280;57136;51.986;4.468;2022-12-15T05:32:55;100901.56;;;-2.86;100.00
69528;BME280;57136;51.986;4.468;2022-12-15T05:35:20;100908.91;;;-2.90;100.00
69528;BME280;57136;51.986;4.468;2022-12-15T05:37:45;100907.47;;;-3.00;100.00
69528;BME280;57136;51.986;4.468;2022-12-15T05:40:11;100915.38;;;-3.10;100.00
69528;BME280;57136;51.986;4.468;2022-12-15T05:42:36;100915.66;;;-3.19;100.00
69528;BME280;57136;51.986;4.468;2022-12-15T05:45:01;100922.47;;;-3.33;100.00
69528;BME280;57136;51.986;4.468;2022-12-15T05:47:27;100918.00;;;-3.37;99.30
69528;BME280;57136;51.986;4.468;2022-12-15T05:49:52;100920.44;;;-3.39;99.07
69528;BME280;57136;51.986;4.468;2022-12-15T05:52:17;100926.03;;;-3.44;100.00
69528;BME280;57136;51.986;4.468;2022-12-15T05:54:43;100920.75;;;-3.48;100.00
69528;BME280;57136;51.986;4.468;2022-12-15T05:57:08;100931.22;;;-3.43;100.00
69528;BME280;57136;51.986;4.468;2022-12-15T05:59:33;100930.16;;;-3.47;100.00
69528;BME280;57136;51.986;4.468;2022-12-15T06:01:59;100933.69;;;-3.44;99.29
69528;BME280;57136;51.986;4.468;2022-12-15T06:04:24;100934.13;;;-3.23;99.13
69528;BME280;57136;51.986;4.468;2022-12-15T06:06:49;100927.53;;;-2.91;99.64
69528;BME280;57136;51.986;4.468;2022-12-15T06:09:15;100926.94;;;-2.59;100.00
69528;BME280;57136;51.986;4.468;2022-12-15T06:11:40;100930.81;;;-2.35;100.00
69528;BME280;57136;51.986;4.468;2022-12-15T06:14:05;100935.84;;;-2.22;100.00
69528;BME280;57136;51.986;4.468;2022-12-15T06:16:31;100942.19;;;-2.30;100.00
69528;BME280;57136;51.986;4.468;2022-12-15T06:18:59;100939.00;;;-2.41;100.00
69528;BME280;57136;51.986;4.468;2022-12-15T06:21:28;100943.41;;;-2.53;100.00
69528;BME280;57136;51.986;4.468;2022-12-15T06:23:55;100949.97;;;-2.57;100.00
69528;BME280;57136;51.986;4.468;2022-12-15T06:26:23;100957.44;;;-2.60;100.00
69528;BME280;57136;51.986;4.468;2022-12-15T06:28:50;100952.66;;;-2.56;100.00
69528;BME280;57136;51.986;4.468;2022-12-15T06:31:17;100958.28;;;-2.46;100.00
69528;BME280;57136;51.986;4.468;2022-12-15T06:33:43;100951.41;;;-2.32;100.00
69528;BME280;57136;51.986;4.468;2022-12-15T06:36:13;100950.31;;;-2.37;100.00
69528;BME280;57136;51.986;4.468;2022-12-15T06:38:39;100947.28;;;-2.45;100.00
69528;BME280;57136;51.986;4.468;2022-12-15T06:41:08;100947.22;;;-2.32;100.00
69528;BME280;57136;51.986;4.468;2022-12-15T06:43:34;100946.44;;;-2.31;100.00
69528;BME280;57136;51.986;4.468;2022-12-15T06:46:00;100945.28;;;-2.36;100.00
69528;BME280;57136;51.986;4.468;2022-12-15T06:48:26;100944.72;;;-2.45;100.00
69528;BME280;57136;51.986;4.468;2022-12-15T06:50:52;100951.94;;;-2.53;100.00
69528;BME280;57136;51.986;4.468;2022-12-15T06:53:19;100943.72;;;-2.62;100.00
69528;BME280;57136;51.986;4.468;2022-12-15T06:55:46;100948.75;;;-2.64;100.00
69528;BME280;57136;51.986;4.468;2022-12-15T06:58:12;100947.00;;;-2.50;100.00
69528;BME280;57136;51.986;4.468;2022-12-15T07:00:40;100955.50;;;-2.21;100.00
69528;BME280;57136;51.986;4.468;2022-12-15T07:03:07;100950.41;;;-2.06;100.00
69528;BME280;57136;51.986;4.468;2022-12-15T07:05:34;100950.56;;;-2.18;100.00
69528;BME280;57136;51.986;4.468;2022-12-15T07:08:00;100950.63;;;-2.31;100.00
69528;BME280;57136;51.986;4.468;2022-12-15T07:10:25;100952.31;;;-2.47;100.00
69528;BME280;57136;51.986;4.468;2022-12-15T07:12:50;100966.00;;;-2.60;100.00
69528;BME280;57136;51.986;4.468;2022-12-15T07:15:16;100971.06;;;-2.75;100.00
69528;BME280;57136;51.986;4.468;2022-12-15T07:17:41;100962.47;;;-2.90;100.00
69528;BME280;57136;51.986;4.468;2022-12-15T07:20:07;100966.03;;;-3.02;100.00
69528;BME280;57136;51.986;4.468;2022-12-15T07:22:33;100965.38;;;-3.12;100.00
69528;BME280;57136;51.986;4.468;2022-12-15T07:24:58;100961.66;;;-3.18;100.00
69528;BME280;57136;51.986;4.468;2022-12-15T07:27:24;100963.16;;;-3.21;100.00
69528;BME280;57136;51.986;4.468;2022-12-15T07:29:49;100964.72;;;-3.23;100.00
69528;BME280;57136;51.986;4.468;2022-12-15T07:32:15;100959.44;;;-3.26;100.00
69528;BME280;57136;51.986;4.468;2022-12-15T07:34:40;100969.63;;;-3.26;100.00
69528;BME280;57136;51.986;4.468;2022-12-15T07:37:06;100969.13;;;-3.21;100.00
69528;BME280;57136;51.986;4.468;2022-12-15T07:39:32;100971.06;;;-3.17;99.62
69528;BME280;57136;51.986;4.468;2022-12-15T07:41:57;100969.91;;;-3.08;99.68
69528;BME280;57136;51.986;4.468;2022-12-15T07:44:22;100971.06;;;-2.75;100.00
69528;BME280;57136;51.986;4.468;2022-12-15T07:46:48;100967.28;;;-2.38;100.00
69528;BME280;57136;51.986;4.468;2022-12-15T07:49:14;100973.28;;;-2.07;100.00
69528;BME280;57136;51.986;4.468;2022-12-15T07:51:40;100973.63;;;-2.01;100.00
69528;BME280;57136;51.986;4.468;2022-12-15T07:54:05;100971.69;;;-2.05;100.00
69528;BME280;57136;51.986;4.468;2022-12-15T07:56:31;100972.16;;;-2.13;100.00
69528;BME280;57136;51.986;4.468;2022-12-15T07:58:56;100975.91;;;-2.21;100.00
69528;BME280;57136;51.986;4.468;2022-12-15T08:01:21;100974.09;;;-2.23;100.00
69528;BME280;57136;51.986;4.468;2022-12-15T08:03:48;100982.88;;;-2.18;100.00
69528;BME280;57136;51.986;4.468;2022-12-15T08:06:14;100990.66;;;-2.02;100.00
69528;BME280;57136;51.986;4.468;2022-12-15T08:08:40;100995.81;;;-1.85;100.00
69528;BME280;57136;51.986;4.468;2022-12-15T08:11:07;101001.03;;;-1.54;100.00
69528;BME280;57136;51.986;4.468;2022-12-15T08:13:33;100997.97;;;-1.31;100.00
69528;BME280;57136;51.986;4.468;2022-12-15T08:15:59;100996.34;;;-1.14;100.00
69528;BME280;57136;51.986;4.468;2022-12-15T08:18:24;100991.22;;;-1.14;100.00
69528;BME280;57136;51.986;4.468;2022-12-15T08:20:49;100992.38;;;-0.93;100.00
69528;BME280;57136;51.986;4.468;2022-12-15T08:23:15;100991.34;;;-0.80;100.00
69528;BME280;57136;51.986;4.468;2022-12-15T08:25:40;100992.88;;;-0.67;100.00
69528;BME280;57136;51.986;4.468;2022-12-15T08:28:07;100992.78;;;-0.52;100.00
69528;BME280;57136;51.986;4.468;2022-12-15T08:30:32;100993.44;;;-0.39;100.00
69528;BME280;57136;51.986;4.468;2022-12-15T08:32:58;100989.50;;;-0.33;100.00
69528;BME280;57136;51.986;4.468;2022-12-15T08:35:23;100985.44;;;-0.29;100.00
69528;BME280;57136;51.986;4.468;2022-12-15T08:37:49;100990.78;;;-0.24;100.00
69528;BME280;57136;51.986;4.468;2022-12-15T08:40:14;101002.78;;;-0.23;100.00
69528;BME280;57136;51.986;4.468;2022-12-15T08:42:40;101000.38;;;-0.20;100.00
69528;BME280;57136;51.986;4.468;2022-12-15T08:45:05;101002.94;;;-0.20;100.00
69528;BME280;57136;51.986;4.468;2022-12-15T08:47:31;101004.00;;;-0.33;100.00
69528;BME280;57136;51.986;4.468;2022-12-15T08:49:56;100998.41;;;-0.42;100.00
69528;BME280;57136;51.986;4.468;2022-12-15T08:52:22;101007.22;;;-0.37;100.00
69528;BME280;57136;51.986;4.468;2022-12-15T08:54:48;101003.59;;;-0.24;100.00
69528;BME280;57136;51.986;4.468;2022-12-15T08:57:13;101005.97;;;-0.11;100.00
69528;BME280;57136;51.986;4.468;2022-12-15T08:59:38;101010.91;;;0.03;100.00
69528;BME280;57136;51.986;4.468;2022-12-15T09:02:04;101016.06;;;0.21;100.00
69528;BME280;57136;51.986;4.468;2022-12-15T09:04:29;101014.09;;;0.33;100.00
69528;BME280;57136;51.986;4.468;2022-12-15T09:06:55;101016.09;;;0.39;100.00
69528;BME280;57136;51.986;4.468;2022-12-15T09:09:20;101016.19;;;0.58;100.00
69528;BME280;57136;51.986;4.468;2022-12-15T09:11:46;101017.63;;;0.71;100.00
69528;BME280;57136;51.986;4.468;2022-12-15T09:14:11;101021.22;;;0.93;100.00
69528;BME280;57136;51.986;4.468;2022-12-15T09:16:36;101019.88;;;1.01;100.00
69528;BME280;57136;51.986;4.468;2022-12-15T09:19:02;101020.38;;;1.12;100.00
69528;BME280;57136;51.986;4.468;2022-12-15T09:21:29;101020.09;;;1.26;100.00
69528;BME280;57136;51.986;4.468;2022-12-15T09:23:57;101015.66;;;1.61;100.00
69528;BME280;57136;51.986;4.468;2022-12-15T09:26:27;101020.72;;;1.79;100.00
69528;BME280;57136;51.986;4.468;2022-12-15T09:28:52;101021.50;;;1.98;100.00
69528;BME280;57136;51.986;4.468;2022-12-15T09:31:25;101022.03;;;2.10;100.00
69528;BME280;57136;51.986;4.468;2022-12-15T09:33:53;101020.75;;;2.41;100.00
69528;BME280;57136;51.986;4.468;2022-12-15T09:36:20;101018.59;;;2.52;100.00
69528;BME280;57136;51.986;4.468;2022-12-15T09:38:45;101018.31;;;3.11;100.00
69528;BME280;57136;51.986;4.468;2022-12-15T09:43:55;101012.13;;;4.03;100.00
69528;BME280;57136;51.986;4.468;2022-12-15T09:46:47;101015.84;;;4.64;98.35
69528;BME280;57136;51.986;4.468;2022-12-15T09:51:52;101023.34;;;5.76;97.17
69528;BME280;57136;51.986;4.468;2022-12-15T09:54:21;101028.88;;;6.20;97.93
69528;BME280;57136;51.986;4.468;2022-12-15T09:56:54;101032.63;;;6.33;94.57
69528;BME280;57136;51.986;4.468;2022-12-15T09:59:53;101030.75;;;7.01;99.59
69528;BME280;57136;51.986;4.468;2022-12-15T10:02:44;101037.59;;;7.37;93.75
69528;BME280;57136;51.986;4.468;2022-12-15T10:08:06;101029.00;;;8.90;96.38
69528;BME280;57136;51.986;4.468;2022-12-15T10:10:54;101036.47;;;8.67;88.97
69528;BME280;57136;51.986;4.468;2022-12-15T10:13:25;101042.13;;;7.92;83.02
69528;BME280;57136;51.986;4.468;2022-12-15T10:15:59;101034.41;;;7.11;84.81
69528;BME280;57136;51.986;4.468;2022-12-15T10:18:47;101048.31;;;6.39;89.17
69528;BME280;57136;51.986;4.468;2022-12-15T10:21:15;101041.59;;;5.50;90.59
69528;BME280;57136;51.986;4.468;2022-12-15T10:23:40;101056.59;;;5.02;93.13
69528;BME280;57136;51.986;4.468;2022-12-15T10:28:51;101056.97;;;4.34;96.87
69528;BME280;57136;51.986;4.468;2022-12-15T10:31:35;101047.44;;;4.05;97.82
69528;BME280;57136;51.986;4.468;2022-12-15T10:34:17;101056.84;;;3.79;100.00
69528;BME280;57136;51.986;4.468;2022-12-15T10:36:51;101058.56;;;4.29;100.00
69528;BME280;57136;51.986;4.468;2022-12-15T10:39:19;101057.25;;;4.42;99.50
69528;BME280;57136;51.986;4.468;2022-12-15T10:41:45;101062.53;;;4.45;97.80
69528;BME280;57136;51.986;4.468;2022-12-15T10:44:35;101060.31;;;4.04;98.17
69528;BME280;57136;51.986;4.468;2022-12-15T10:47:09;101048.38;;;4.08;99.62
69528;BME280;57136;51.986;4.468;2022-12-15T10:49:34;101048.31;;;4.06;99.44
69528;BME280;57136;51.986;4.468;2022-12-15T10:52:00;101054.69;;;4.42;100.00
69528;BME280;57136;51.986;4.468;2022-12-15T10:54:42;101052.94;;;4.95;97.10
69528;BME280;57136;51.986;4.468;2022-12-15T10:57:33;101056.53;;;5.01;96.04
69528;BME280;57136;51.986;4.468;2022-12-15T11:00:24;101055.63;;;5.28;95.60
69528;BME280;57136;51.986;4.468;2022-12-15T11:02:51;101046.00;;;5.52;93.55
69528;BME280;57136;51.986;4.468;2022-12-15T11:05:17;101038.69;;;6.00;90.85
69528;BME280;57136;51.986;4.468;2022-12-15T11:07:51;101042.50;;;6.48;89.09
69528;BME280;57136;51.986;4.468;2022-12-15T11:10:24;101046.09;;;6.55;87.85
69528;BME280;57136;51.986;4.468;2022-12-15T11:12:56;101043.28;;;7.20;85.89
69528;BME280;57136;51.986;4.468;2022-12-15T11:15:36;101046.25;;;7.39;85.02
69528;BME280;57136;51.986;4.468;2022-12-15T11:18:15;101041.38;;;7.55;83.78
69528;BME280;57136;51.986;4.468;2022-12-15T11:21:04;101039.91;;;7.68;82.60
69528;BME280;57136;51.986;4.468;2022-12-15T11:23:44;101038.91;;;7.61;81.32
69528;BME280;57136;51.986;4.468;2022-12-15T11:26:30;101039.06;;;8.16;81.21
69528;BME280;57136;51.986;4.468;2022-12-15T11:29:12;101044.97;;;8.58;79.87
69528;BME280;57136;51.986;4.468;2022-12-15T11:31:43;101037.41;;;9.35;77.69
69528;BME280;57136;51.986;4.468;2022-12-15T11:34:14;101034.56;;;9.15;75.55
69528;BME280;57136;51.986;4.468;2022-12-15T11:45:16;101041.09;;;8.34;75.73
69528;BME280;57136;51.986;4.468;2022-12-15T11:53:24;101030.06;;;6.35;87.37
69528;BME280;57136;51.986;4.468;2022-12-15T11:56:30;101029.22;;;6.34;87.19
69528;BME280;57136;51.986;4.468;2022-12-15T12:02:06;101033.66;;;7.15;86.32
69528;BME280;57136;51.986;4.468;2022-12-15T12:04:51;101038.75;;;7.98;82.96
69528;BME280;57136;51.986;4.468;2022-12-15T12:07:42;101036.09;;;8.44;79.43
69528;BME280;57136;51.986;4.468;2022-12-15T12:10:24;101034.38;;;8.46;78.28
69528;BME280;57136;51.986;4.468;2022-12-15T12:15:40;101024.91;;;8.48;77.59
69528;BME280;57136;51.986;4.468;2022-12-15T12:21:02;101022.94;;;8.34;77.56
69528;BME280;57136;51.986;4.468;2022-12-15T12:23:54;101020.84;;;8.13;79.18
69528;BME280;57136;51.986;4.468;2022-12-15T12:26:28;101010.84;;;8.38;78.44
69528;BME280;57136;51.986;4.468;2022-12-15T12:34:11;101001.66;;;8.56;77.17
69528;BME280;57136;51.986;4.468;2022-12-15T12:36:39;100998.72;;;8.94;76.07
69528;BME280;57136;51.986;4.468;2022-12-15T12:39:16;100997.47;;;8.64;74.97
69528;BME280;57136;51.986;4.468;2022-12-15T12:44:36;100995.72;;;8.64;74.71
69528;BME280;57136;51.986;4.468;2022-12-15T12:47:23;100993.44;;;8.86;73.87
69528;BME280;57136;51.986;4.468;2022-12-15T12:49:59;100984.25;;;9.11;72.92
69528;BME280;57136;51.986;4.468;2022-12-15T12:52:35;100977.34;;;9.13;72.27
69528;BME280;57136;51.986;4.468;2022-12-15T12:55:40;100975.16;;;9.48;71.55
69528;BME280;57136;51.986;4.468;2022-12-15T12:58:44;100974.06;;;9.28;70.43
69528;BME280;57136;51.986;4.468;2022-12-15T13:03:39;100963.84;;;9.46;69.91
69528;BME280;57136;51.986;4.468;2022-12-15T13:06:33;100968.94;;;9.38;70.12
69528;BME280;57136;51.986;4.468;2022-12-15T13:11:54;100970.56;;;9.28;69.65
69528;BME280;57136;51.986;4.468;2022-12-15T13:14:40;100974.94;;;9.31;69.10
69528;BME280;57136;51.986;4.468;2022-12-15T13:17:25;100968.63;;;9.92;68.88
69528;BME280;57136;51.986;4.468;2022-12-15T13:22:28;100967.50;;;10.67;65.70
69528;BME280;57136;51.986;4.468;2022-12-15T13:24:55;100965.78;;;10.73;62.87
69528;BME280;57136;51.986;4.468;2022-12-15T13:27:21;100961.63;;;11.00;63.30
69528;BME280;57136;51.986;4.468;2022-12-15T13:42:55;100941.53;;;7.78;71.29
69528;BME280;57136;51.986;4.468;2022-12-15T13:45:31;100946.03;;;7.89;72.54
69528;BME280;57136;51.986;4.468;2022-12-15T13:47:59;100938.22;;;7.40;73.96
69528;BME280;57136;51.986;4.468;2022-12-15T13:50:31;100940.38;;;7.62;74.14
69528;BME280;57136;51.986;4.468;2022-12-15T13:53:01;100940.91;;;7.92;73.55
69528;BME280;57136;51.986;4.468;2022-12-15T13:55:35;100935.28;;;8.18;72.57
69528;BME280;57136;51.986;4.468;2022-12-15T13:58:15;100931.47;;;8.52;70.72
69528;BME280;57136;51.986;4.468;2022-12-15T14:00:50;100935.50;;;8.92;69.44
69528;BME280;57136;51.986;4.468;2022-12-15T14:03:16;100939.94;;;9.02;68.42
69528;BME280;57136;51.986;4.468;2022-12-15T14:05:56;100937.41;;;9.08;66.93
69528;BME280;57136;51.986;4.468;2022-12-15T14:08:23;100942.50;;;8.39;69.19
69528;BME280;57136;51.986;4.468;2022-12-15T14:10:53;100949.19;;;7.71;72.09
69528;BME280;57136;51.986;4.468;2022-12-15T14:13:25;100936.56;;;6.99;75.50
69528;BME280;57136;51.986;4.468;2022-12-15T14:15:55;100940.00;;;6.58;77.75
69528;BME280;57136;51.986;4.468;2022-12-15T14:20:52;100938.59;;;5.99;80.76
69528;BME280;57136;51.986;4.468;2022-12-15T14:23:24;100934.28;;;5.64;83.08
69528;BME280;57136;51.986;4.468;2022-12-15T14:25:54;100935.75;;;5.54;83.81
69528;BME280;57136;51.986;4.468;2022-12-15T14:28:34;100941.38;;;5.39;85.83
69528;BME280;57136;51.986;4.468;2022-12-15T14:31:03;100934.59;;;5.45;85.03
69528;BME280;57136;51.986;4.468;2022-12-15T14:33:32;100933.03;;;5.18;85.79
69528;BME280;57136;51.986;4.468;2022-12-15T14:36:00;100939.81;;;5.14;87.21
69528;BME280;57136;51.986;4.468;2022-12-15T14:38:46;100947.19;;;5.00;88.88
69528;BME280;57136;51.986;4.468;2022-12-15T14:41:23;100941.97;;;4.99;88.08